Time;durP1;ratioP1;P1;durP2;ratioP2;P2;SDS_P1;SDS_P2;PMS_P1;PMS_P2;Temp;Humidity;BMP_temperature;BMP_pressure;BME280_temperature;BME280_humidity;BME280_pressure;Samples;Min_cycle;Max_cycle;Signal;HPM_P1;HPM_P2
2023/07/02 00:02:15;;;;;;;1.47;1.30;;;17.00;99.90;;;;;;5105194;27;20645;-78
2023/07/02 00:04:44;;;;;;;3.43;2.67;;;17.10;99.90;;;;;;5097128;28;20842;-82
2023/07/02 00:07:11;;;;;;;6.13;1.63;;;17.20;99.90;;;;;;5099049;28;20476;-78
2023/07/02 00:09:38;;;;;;;2.57;2.37;;;17.40;99.90;;;;;;5098186;28;20507;-78
2023/07/02 00:12:06;;;;;;;1.87;1.73;;;17.60;99.90;;;;;;5102813;28;20510;-78
2023/07/02 00:14:33;;;;;;;3.80;1.53;;;17.70;99.90;;;;;;5104125;27;20475;-82
2023/07/02 00:17:00;;;;;;;1.70;1.60;;;17.70;99.90;;;;;;5104307;28;20466;-78
2023/07/02 00:19:27;;;;;;;1.60;1.50;;;17.70;99.90;;;;;;5105058;28;20884;-78
2023/07/02 00:21:55;;;;;;;2.60;1.30;;;17.70;99.90;;;;;;5105911;28;21013;-80
2023/07/02 00:24:23;;;;;;;2.00;1.57;;;17.70;99.90;;;;;;5105783;28;20488;-78
2023/07/02 00:26:50;;;;;;;1.70;1.60;;;17.80;99.90;;;;;;5105311;27;20494;-78
2023/07/02 00:29:18;;;;;;;2.10;1.43;;;17.80;99.90;;;;;;5103007;27;20550;-78
2023/07/02 00:31:45;;;;;;;2.60;1.90;;;17.90;99.90;;;;;;5104158;27;20577;-79
2023/07/02 00:34:12;;;;;;;1.70;1.20;;;18.00;99.90;;;;;;5102289;28;20453;-79
2023/07/02 00:36:39;;;;;;;3.00;1.27;;;18.00;99.90;;;;;;5107152;28;20536;-81
2023/07/02 00:39:07;;;;;;;2.53;1.27;;;18.20;99.90;;;;;;5101774;28;20497;-78
2023/07/02 00:41:34;;;;;;;1.30;1.20;;;18.30;99.90;;;;;;5104933;28;21067;-78
2023/07/02 00:44:01;;;;;;;2.57;1.30;;;18.40;99.90;;;;;;5108243;27;20444;-76
2023/07/02 00:46:28;;;;;;;5.77;1.93;;;18.40;99.90;;;;;;5105891;27;20490;-82
2023/07/02 00:48:56;;;;;;;1.50;1.40;;;18.40;99.90;;;;;;5105064;27;20487;-77
2023/07/02 00:51:24;;;;;;;1.70;1.60;;;18.40;99.90;;;;;;5102872;28;20517;-78
2023/07/02 00:53:54;;;;;;;1.60;1.20;;;18.50;99.90;;;;;;5100717;28;20479;-78
2023/07/02 00:56:23;;;;;;;1.40;1.27;;;18.60;99.90;;;;;;5097311;28;20445;-78
2023/07/02 00:58:51;;;;;;;2.23;1.50;;;18.50;99.90;;;;;;5104265;28;20485;-78
2023/07/02 01:01:19;;;;;;;1.30;1.20;;;18.50;99.90;;;;;;5098706;27;20503;-77
2023/07/02 01:03:54;;;;;;;2.07;1.87;;;18.50;99.90;;;;;;5101503;28;20455;-76
2023/07/02 01:06:25;;;;;;;2.47;1.40;;;18.50;99.90;;;;;;5103241;28;20454;-81
2023/07/02 01:08:55;;;;;;;1.90;1.80;;;18.50;99.90;;;;;;5097003;28;20466;-78
2023/07/02 01:11:28;;;;;;;2.83;1.80;;;18.40;99.90;;;;;;5100023;28;20514;-80
2023/07/02 01:13:59;;;;;;;2.20;1.43;;;18.50;99.90;;;;;;5101685;28;20937;-77
2023/07/02 01:16:26;;;;;;;1.67;1.57;;;18.50;99.90;;;;;;5100279;28;20478;-79
2023/07/02 01:18:54;;;;;;;2.30;1.43;;;18.60;99.90;;;;;;5098984;28;20949;-78
2023/07/02 01:21:25;;;;;;;2.20;1.70;;;18.60;99.90;;;;;;5099273;27;21005;-78
2023/07/02 01:23:52;;;;;;;1.50;1.40;;;18.60;99.90;;;;;;5100817;28;20469;-79
2023/07/02 01:26:20;;;;;;;1.93;1.47;;;18.70;99.90;;;;;;5106654;28;20577;-77
2023/07/02 01:28:47;;;;;;;2.50;2.00;;;18.70;99.90;;;;;;5100205;27;20494;-77
2023/07/02 01:31:14;;;;;;;2.63;1.63;;;18.80;99.70;;;;;;5102404;28;21165;-81
2023/07/02 01:33:42;;;;;;;1.57;1.47;;;18.80;99.70;;;;;;5102925;28;20478;-80
2023/07/02 01:36:09;;;;;;;1.83;1.60;;;18.80;99.90;;;;;;5103580;28;20438;-80
2023/07/02 01:38:37;;;;;;;2.37;2.10;;;18.80;99.90;;;;;;5099884;28;20466;-79
2023/07/02 01:41:04;;;;;;;1.23;1.13;;;18.90;99.70;;;;;;5098434;28;20493;-83
2023/07/02 01:43:31;;;;;;;2.97;1.73;;;18.90;99.70;;;;;;5100595;28;20494;-78
2023/07/02 01:45:59;;;;;;;3.27;2.60;;;18.90;99.90;;;;;;5102085;28;20448;-79
2023/07/02 01:48:26;;;;;;;1.63;1.53;;;18.90;99.90;;;;;;5099358;28;20496;-78
2023/07/02 01:50:53;;;;;;;2.73;2.27;;;18.80;99.90;;;;;;5100933;28;20484;-81
2023/07/02 01:53:20;;;;;;;1.77;1.37;;;18.80;99.90;;;;;;5101608;28;20560;-81
2023/07/02 01:55:49;;;;;;;2.53;1.97;;;18.80;99.90;;;;;;5094344;28;20477;-83
2023/07/02 01:58:16;;;;;;;1.73;1.57;;;18.80;99.90;;;;;;5105784;27;20568;-80
2023/07/02 02:00:43;;;;;;;1.73;1.10;;;18.60;99.90;;;;;;5107387;27;20794;-79
2023/07/02 02:03:10;;;;;;;1.87;1.77;;;18.40;99.90;;;;;;5099426;28;20476;-80
2023/07/02 02:05:36;;;;;;;1.47;1.30;;;18.30;99.90;;;;;;5103384;28;20564;-77
2023/07/02 02:08:05;;;;;;;1.30;1.20;;;18.20;99.90;;;;;;5097539;28;21179;-77
2023/07/02 02:10:32;;;;;;;4.23;2.20;;;18.10;99.90;;;;;;5101922;28;20537;-77
2023/07/02 02:13:00;;;;;;;1.63;1.40;;;18.10;99.90;;;;;;5098986;27;20516;-77
2023/07/02 02:15:27;;;;;;;1.50;1.40;;;18.00;99.90;;;;;;5097129;27;20490;-78
2023/07/02 02:17:54;;;;;;;2.37;1.67;;;17.90;99.90;;;;;;5103747;28;20479;-78
2023/07/02 02:20:21;;;;;;;1.47;1.27;;;17.90;99.90;;;;;;5102713;28;21245;-80
2023/07/02 02:22:48;;;;;;;1.90;1.80;;;17.80;99.90;;;;;;5101258;27;20475;-78
2023/07/02 02:25:15;;;;;;;1.90;1.77;;;17.70;99.90;;;;;;5101177;28;20585;-77
2023/07/02 02:27:43;;;;;;;1.73;1.63;;;17.60;99.90;;;;;;5100216;28;21246;-80
2023/07/02 02:30:12;;;;;;;2.20;2.10;;;17.60;99.90;;;;;;5104856;27;20451;-78
2023/07/02 02:32:38;;;;;;;3.27;1.50;;;17.60;99.90;;;;;;5101662;28;20514;-81
2023/07/02 02:35:06;;;;;;;4.67;1.33;;;17.60;99.90;;;;;;5101532;28;20537;-77
2023/07/02 02:37:35;;;;;;;2.60;2.00;;;17.50;99.90;;;;;;5097411;28;20505;-80
2023/07/02 02:40:02;;;;;;;5.90;2.47;;;17.40;99.90;;;;;;5100427;28;20462;-78
2023/07/02 02:42:29;;;;;;;4.40;2.20;;;17.40;99.90;;;;;;5102388;28;20481;-77
2023/07/02 02:44:56;;;;;;;2.30;1.70;;;17.20;99.90;;;;;;5100315;28;21001;-78
2023/07/02 02:47:24;;;;;;;2.17;1.40;;;17.20;99.90;;;;;;5091468;28;20455;-76
2023/07/02 02:49:51;;;;;;;2.00;1.90;;;17.10;99.90;;;;;;5099051;28;20497;-82
2023/07/02 02:52:18;;;;;;;2.40;2.20;;;17.00;99.90;;;;;;5100770;28;20567;-77
2023/07/02 02:54:46;;;;;;;1.47;1.37;;;16.90;99.90;;;;;;5101672;28;20483;-79
2023/07/02 02:57:13;;;;;;;1.93;1.73;;;16.80;99.90;;;;;;5104927;28;20485;-79
2023/07/02 02:59:40;;;;;;;2.20;2.10;;;16.70;99.90;;;;;;5103079;28;20455;-78
2023/07/02 03:02:07;;;;;;;1.67;1.57;;;16.70;99.90;;;;;;5103600;28;20476;-79
2023/07/02 03:04:39;;;;;;;2.20;2.00;;;16.70;99.90;;;;;;5097420;28;20494;-77
2023/07/02 03:07:06;;;;;;;5.60;2.00;;;16.60;99.90;;;;;;5104144;28;21226;-77
2023/07/02 03:09:33;;;;;;;2.23;2.03;;;16.60;99.90;;;;;;5095168;28;20532;-77
2023/07/02 03:12:00;;;;;;;2.57;1.80;;;16.60;99.90;;;;;;5101116;28;20515;-79
2023/07/02 03:14:27;;;;;;;3.40;2.60;;;16.60;99.90;;;;;;5102916;28;20520;-79
2023/07/02 03:16:54;;;;;;;2.50;2.30;;;16.60;99.90;;;;;;5095520;28;20490;-76
2023/07/02 03:19:21;;;;;;;2.53;2.30;;;16.60;99.90;;;;;;5100645;28;20480;-77
2023/07/02 03:21:49;;;;;;;2.30;2.20;;;16.50;99.90;;;;;;5101095;28;20512;-77
2023/07/02 03:24:16;;;;;;;2.93;2.73;;;16.60;99.90;;;;;;5100683;28;20470;-77
2023/07/02 03:26:44;;;;;;;2.60;2.40;;;16.60;99.90;;;;;;5105692;28;21226;-81
2023/07/02 03:29:11;;;;;;;2.13;2.03;;;16.60;99.90;;;;;;5106385;28;20503;-77
2023/07/02 03:31:38;;;;;;;3.60;2.30;;;16.60;99.90;;;;;;5100768;28;21209;-78
2023/07/02 03:34:08;;;;;;;1.83;1.73;;;16.60;99.90;;;;;;5107006;28;20977;-79
2023/07/02 03:36:35;;;;;;;2.60;2.40;;;16.60;99.90;;;;;;5102772;28;20555;-77
2023/07/02 03:39:03;;;;;;;2.40;2.10;;;16.60;99.90;;;;;;5100747;28;20872;-77
2023/07/02 03:41:30;;;;;;;1.70;1.60;;;16.60;99.90;;;;;;5102204;28;20517;-80
2023/07/02 03:43:57;;;;;;;1.50;1.20;;;16.70;99.90;;;;;;5102033;28;20507;-77
2023/07/02 03:46:24;;;;;;;1.30;1.20;;;16.70;99.90;;;;;;5101808;28;20480;-78
2023/07/02 03:48:51;;;;;;;1.77;1.10;;;16.70;99.90;;;;;;5103587;28;20492;-76
2023/07/02 03:51:18;;;;;;;1.17;1.07;;;16.70;99.90;;;;;;5107315;28;20443;-78
2023/07/02 03:53:45;;;;;;;1.53;1.07;;;16.80;99.90;;;;;;5105444;28;20579;-80
2023/07/02 03:56:13;;;;;;;2.40;1.37;;;16.80;99.90;;;;;;5105824;27;20871;-78
2023/07/02 03:58:41;;;;;;;1.50;1.40;;;16.80;99.90;;;;;;5108579;27;21054;-78
2023/07/02 04:01:08;;;;;;;1.20;1.10;;;16.80;99.90;;;;;;5102190;28;20540;-77
2023/07/02 04:03:35;;;;;;;1.10;1.10;;;16.90;99.90;;;;;;5107002;28;20516;-78
2023/07/02 04:06:05;;;;;;;1.17;1.00;;;17.00;99.90;;;;;;5103695;28;20516;-77
2023/07/02 04:08:32;;;;;;;1.20;1.10;;;17.10;99.90;;;;;;5103135;28;20486;-78
2023/07/02 04:10:59;;;;;;;0.90;0.90;;;17.10;99.90;;;;;;5103147;27;20465;-78
2023/07/02 04:13:27;;;;;;;1.80;1.27;;;17.20;99.90;;;;;;5100473;28;21301;-78
2023/07/02 04:15:54;;;;;;;1.00;1.00;;;17.30;99.90;;;;;;5104531;28;20476;-78
2023/07/02 04:18:21;;;;;;;0.90;0.90;;;17.30;99.90;;;;;;5102825;28;20447;-81
2023/07/02 04:20:48;;;;;;;1.50;1.17;;;17.20;99.90;;;;;;5102747;28;20495;-77
2023/07/02 04:23:16;;;;;;;1.93;1.23;;;17.30;99.90;;;;;;5099645;28;20460;-77
2023/07/02 04:25:43;;;;;;;1.40;1.27;;;17.30;99.90;;;;;;5104544;27;20511;-79
2023/07/02 04:28:09;;;;;;;1.10;0.87;;;17.40;99.90;;;;;;5097635;28;20532;-78
2023/07/02 04:30:38;;;;;;;1.20;0.90;;;17.40;99.90;;;;;;5104524;28;20490;-78
2023/07/02 04:33:05;;;;;;;0.97;0.90;;;17.50;99.90;;;;;;5103835;28;20518;-83
2023/07/02 04:35:32;;;;;;;1.17;1.07;;;17.50;99.90;;;;;;5101887;28;20829;-79
2023/07/02 04:37:59;;;;;;;1.17;1.07;;;17.50;99.90;;;;;;5099910;28;20516;-81
2023/07/02 04:40:26;;;;;;;1.00;0.90;;;17.50;99.90;;;;;;5103689;28;20850;-78
2023/07/02 04:42:57;;;;;;;1.63;1.00;;;17.40;99.90;;;;;;5101200;27;20489;-79
2023/07/02 04:45:25;;;;;;;0.80;0.80;;;17.40;99.90;;;;;;5106456;28;20447;-79
2023/07/02 04:47:53;;;;;;;1.30;1.20;;;17.50;99.90;;;;;;5097629;28;20463;-79
2023/07/02 04:50:21;;;;;;;1.97;1.10;;;17.50;99.90;;;;;;5101602;28;21018;-78
2023/07/02 04:52:47;;;;;;;3.00;0.83;;;17.60;99.90;;;;;;5100472;28;21321;-77
2023/07/02 04:55:14;;;;;;;1.30;0.80;;;17.60;99.90;;;;;;5108411;27;20469;-78
2023/07/02 04:57:41;;;;;;;1.00;0.90;;;17.60;99.90;;;;;;5104975;27;20494;-78
2023/07/02 05:00:09;;;;;;;0.80;0.80;;;17.70;99.90;;;;;;5103710;27;20477;-78
2023/07/02 05:02:36;;;;;;;0.87;0.70;;;17.70;99.90;;;;;;5103974;28;20617;-79
2023/07/02 05:05:05;;;;;;;0.80;0.80;;;17.70;99.90;;;;;;5099986;27;20487;-77
2023/07/02 05:07:33;;;;;;;1.47;1.17;;;17.70;99.90;;;;;;5106492;28;20472;-76
2023/07/02 05:09:59;;;;;;;1.90;0.80;;;17.80;99.90;;;;;;5098192;27;20456;-75
2023/07/02 05:12:26;;;;;;;1.37;1.00;;;17.80;99.90;;;;;;5106175;27;20521;-79
2023/07/02 05:14:53;;;;;;;1.20;1.10;;;17.80;99.90;;;;;;5104030;28;20497;-78
2023/07/02 05:17:20;;;;;;;1.00;0.90;;;17.90;99.90;;;;;;5104313;28;20937;-78
2023/07/02 05:19:47;;;;;;;1.17;1.10;;;17.80;99.90;;;;;;5101466;28;20514;-77
2023/07/02 05:22:15;;;;;;;1.27;1.23;;;18.00;99.90;;;;;;5104193;28;21075;-79
2023/07/02 05:24:43;;;;;;;1.00;0.90;;;18.20;99.90;;;;;;5104808;27;20510;-80
2023/07/02 05:27:10;;;;;;;0.83;0.80;;;18.30;99.90;;;;;;5105691;28;20464;-77
2023/07/02 05:29:37;;;;;;;1.30;1.20;;;18.50;99.90;;;;;;5104997;28;20450;-78
2023/07/02 05:32:05;;;;;;;1.60;0.80;;;18.60;99.90;;;;;;5099559;28;21014;-78
2023/07/02 05:34:32;;;;;;;1.00;0.90;;;18.70;99.90;;;;;;5101015;28;20489;-79
2023/07/02 05:36:59;;;;;;;1.70;0.90;;;18.70;99.90;;;;;;5104536;28;20955;-77
2023/07/02 05:39:27;;;;;;;1.83;0.97;;;18.60;99.90;;;;;;5106982;27;20485;-77
2023/07/02 05:41:54;;;;;;;1.33;1.20;;;18.60;99.90;;;;;;5102888;27;20544;-79
2023/07/02 05:44:21;;;;;;;1.03;1.03;;;18.60;99.90;;;;;;5106862;28;20475;-77
2023/07/02 05:46:48;;;;;;;1.90;1.17;;;18.60;99.90;;;;;;5097916;28;20474;-84
2023/07/02 05:49:15;;;;;;;1.00;0.90;;;18.60;99.90;;;;;;5100081;28;20553;-80
2023/07/02 05:51:42;;;;;;;0.90;0.90;;;19.00;99.90;;;;;;5102017;28;20472;-80
2023/07/02 05:54:09;;;;;;;1.70;1.53;;;19.20;99.90;;;;;;5102394;28;20506;-79
2023/07/02 05:56:37;;;;;;;1.50;0.73;;;19.50;99.90;;;;;;5100060;28;20498;-84
2023/07/02 05:59:04;;;;;;;0.90;0.90;;;19.60;99.90;;;;;;5101885;27;21170;-80
2023/07/02 06:01:31;;;;;;;1.00;0.90;;;19.70;99.90;;;;;;5100478;28;20446;-82
2023/07/02 06:03:58;;;;;;;3.00;1.00;;;19.80;99.90;;;;;;5097692;28;20988;-79
2023/07/02 06:06:24;;;;;;;1.63;0.90;;;19.90;99.90;;;;;;5097456;28;20495;-79
2023/07/02 06:08:52;;;;;;;0.83;0.80;;;19.90;99.90;;;;;;5101207;28;21036;-82
2023/07/02 06:11:19;;;;;;;0.90;0.80;;;19.90;99.90;;;;;;5103036;28;20906;-80
2023/07/02 06:13:47;;;;;;;1.47;1.37;;;19.90;99.90;;;;;;5103145;27;20482;-79
2023/07/02 06:16:14;;;;;;;0.87;0.80;;;19.90;99.90;;;;;;5101794;28;20451;-80
2023/07/02 06:18:42;;;;;;;1.00;0.90;;;19.70;99.90;;;;;;5100249;28;20503;-79
2023/07/02 06:21:08;;;;;;;0.80;0.80;;;19.60;99.90;;;;;;5104229;28;20541;-79
2023/07/02 06:23:42;;;;;;;1.20;1.10;;;19.50;99.90;;;;;;5105260;28;20535;-81
2023/07/02 06:26:09;;;;;;;0.93;0.73;;;19.60;99.90;;;;;;5101559;28;20477;-78
2023/07/02 06:28:36;;;;;;;1.17;1.07;;;19.50;99.90;;;;;;5103944;28;20458;-78
2023/07/02 06:31:04;;;;;;;0.80;0.80;;;19.50;99.90;;;;;;5100061;28;20470;-79
2023/07/02 06:33:31;;;;;;;1.40;1.23;;;19.50;99.90;;;;;;5100037;28;20480;-79
2023/07/02 06:35:58;;;;;;;1.67;0.80;;;19.30;99.90;;;;;;5101581;28;20449;-81
2023/07/02 06:38:25;;;;;;;2.00;1.37;;;19.30;99.90;;;;;;5106580;28;20478;-79
2023/07/02 06:40:52;;;;;;;1.40;1.30;;;19.20;99.90;;;;;;5105902;28;20544;-79
2023/07/02 06:43:19;;;;;;;1.03;1.00;;;19.00;99.90;;;;;;5096615;28;20512;-78
2023/07/02 06:45:46;;;;;;;1.63;0.97;;;18.90;99.90;;;;;;5102314;28;20479;-78
2023/07/02 06:48:17;;;;;;;1.57;0.87;;;18.80;99.90;;;;;;5102697;28;20550;-79
2023/07/02 06:50:46;;;;;;;2.43;1.70;;;18.60;99.90;;;;;;5103627;28;20475;-79
2023/07/02 06:53:13;;;;;;;1.50;1.40;;;18.20;99.90;;;;;;5103386;28;20483;-78
2023/07/02 06:55:40;;;;;;;2.90;1.80;;;17.90;99.90;;;;;;5097835;28;20913;-79
2023/07/02 06:58:08;;;;;;;2.93;1.50;;;17.60;99.90;;;;;;5093349;28;20459;-79
2023/07/02 07:00:35;;;;;;;3.43;1.90;;;17.30;99.90;;;;;;5104545;28;20520;-79
2023/07/02 07:03:03;;;;;;;2.00;1.70;;;17.20;99.90;;;;;;5101785;28;20464;-78
2023/07/02 07:05:32;;;;;;;2.07;1.87;;;17.30;99.90;;;;;;5096573;28;20451;-80
2023/07/02 07:08:00;;;;;;;1.60;1.50;;;17.30;99.90;;;;;;5101635;28;20948;-80
2023/07/02 07:10:27;;;;;;;2.23;1.83;;;17.40;99.90;;;;;;5101836;28;20536;-80
2023/07/02 07:12:54;;;;;;;2.30;2.10;;;17.50;99.90;;;;;;5100256;28;20496;-78
2023/07/02 07:15:21;;;;;;;1.90;1.80;;;17.70;99.90;;;;;;5099668;28;20508;-79
2023/07/02 07:17:48;;;;;;;2.10;1.70;;;17.60;99.90;;;;;;5096889;28;20492;-80
2023/07/02 07:20:15;;;;;;;1.87;1.77;;;17.70;99.90;;;;;;5101793;28;20455;-81
2023/07/02 07:22:43;;;;;;;2.60;2.00;;;17.80;99.90;;;;;;5100468;28;20472;-82
2023/07/02 07:25:11;;;;;;;1.67;1.53;;;17.80;99.90;;;;;;5101676;28;20478;-80
2023/07/02 07:27:38;;;;;;;1.57;1.47;;;17.80;99.90;;;;;;5101526;28;20451;-81
2023/07/02 07:30:06;;;;;;;1.80;1.63;;;17.80;99.90;;;;;;5102107;28;21070;-79
2023/07/02 07:32:33;;;;;;;1.50;1.40;;;18.00;99.90;;;;;;5103926;28;20463;-78
2023/07/02 07:35:00;;;;;;;2.20;1.47;;;18.10;99.90;;;;;;5102275;28;20484;-81
2023/07/02 07:37:27;;;;;;;2.20;2.00;;;17.90;99.90;;;;;;5104676;28;21141;-80
2023/07/02 07:39:55;;;;;;;1.80;1.70;;;17.90;99.90;;;;;;5105136;28;20468;-80
2023/07/02 07:42:22;;;;;;;1.27;1.17;;;17.90;99.90;;;;;;5097949;28;21024;-80
2023/07/02 07:44:49;;;;;;;1.83;1.73;;;18.00;99.90;;;;;;5104511;28;20468;-78
2023/07/02 07:47:16;;;;;;;1.27;1.17;;;18.10;99.90;;;;;;5105827;28;20510;-80
2023/07/02 07:49:43;;;;;;;2.83;1.00;;;18.30;99.90;;;;;;5103127;28;20818;-80
2023/07/02 07:52:10;;;;;;;1.60;1.50;;;18.30;99.90;;;;;;5100659;28;20534;-78
2023/07/02 07:54:37;;;;;;;1.23;0.90;;;18.00;99.90;;;;;;5103456;28;20514;-77
2023/07/02 07:57:06;;;;;;;1.23;0.90;;;17.80;99.90;;;;;;5098249;28;20504;-79
2023/07/02 07:59:33;;;;;;;1.20;1.10;;;17.60;99.90;;;;;;5098917;28;20952;-80
2023/07/02 08:02:00;;;;;;;1.03;0.97;;;17.80;99.90;;;;;;5099138;27;20518;-78
2023/07/02 08:04:27;;;;;;;2.13;1.33;;;17.90;99.90;;;;;;5102210;28;20448;-78
2023/07/02 08:06:54;;;;;;;1.73;1.63;;;18.00;99.90;;;;;;5096960;28;20466;-80
2023/07/02 08:09:21;;;;;;;1.20;1.10;;;18.10;99.90;;;;;;5102481;28;21001;-78
2023/07/02 08:11:48;;;;;;;1.40;1.30;;;18.00;99.90;;;;;;5104324;28;20951;-79
2023/07/02 08:14:17;;;;;;;1.23;0.80;;;17.80;99.90;;;;;;5104493;28;20482;-80
2023/07/02 08:16:44;;;;;;;1.30;1.20;;;17.80;99.90;;;;;;5105354;27;20488;-79
2023/07/02 08:19:11;;;;;;;1.53;1.10;;;18.00;99.90;;;;;;5105414;28;20445;-78
2023/07/02 08:21:38;;;;;;;1.37;1.27;;;18.20;99.90;;;;;;5096711;27;20506;-80
2023/07/02 08:24:06;;;;;;;1.90;1.17;;;18.20;99.90;;;;;;5105840;28;21041;-80
2023/07/02 08:26:33;;;;;;;3.33;1.20;;;18.30;99.90;;;;;;5108238;27;20560;-77
2023/07/02 08:29:00;;;;;;;1.83;0.90;;;18.10;99.90;;;;;;5107325;27;20481;-81
2023/07/02 08:31:29;;;;;;;1.20;1.10;;;18.10;99.90;;;;;;5103271;28;21117;-78
2023/07/02 08:33:56;;;;;;;1.00;1.00;;;18.20;99.90;;;;;;5103777;27;21144;-80
2023/07/02 08:36:23;;;;;;;2.70;1.13;;;18.40;99.90;;;;;;5108420;27;20443;-79
2023/07/02 08:38:50;;;;;;;1.50;1.37;;;18.70;99.90;;;;;;5104231;28;20547;-81
2023/07/02 08:41:18;;;;;;;2.00;0.87;;;19.00;99.90;;;;;;5103067;28;20537;-79
2023/07/02 08:43:45;;;;;;;2.30;0.80;;;18.90;99.90;;;;;;5107496;28;20539;-80
2023/07/02 08:46:12;;;;;;;2.97;1.10;;;18.80;99.90;;;;;;5109217;27;20481;-78
2023/07/02 08:48:41;;;;;;;2.40;0.80;;;18.90;99.90;;;;;;5098011;28;20518;-80
2023/07/02 08:51:08;;;;;;;3.07;1.37;;;18.70;99.90;;;;;;5105253;28;20493;-79
2023/07/02 08:53:35;;;;;;;1.30;0.97;;;18.60;99.90;;;;;;5105693;28;20496;-79
2023/07/02 08:56:03;;;;;;;1.80;0.90;;;18.40;99.90;;;;;;5101591;28;20570;-80
2023/07/02 08:58:30;;;;;;;2.20;1.23;;;18.50;99.90;;;;;;5101096;27;20491;-80
2023/07/02 09:01:11;;;;;;;0.93;0.87;;;18.40;99.90;;;;;;5102859;27;20546;-78
2023/07/02 09:03:41;;;;;;;1.23;0.90;;;18.20;99.90;;;;;;5101931;27;20462;-78
2023/07/02 09:06:09;;;;;;;1.17;0.93;;;18.50;99.90;;;;;;5102387;28;20855;-80
2023/07/02 09:08:36;;;;;;;1.10;1.00;;;18.60;99.90;;;;;;5103711;27;20525;-79
2023/07/02 09:11:10;;;;;;;1.90;1.27;;;18.70;99.90;;;;;;5102573;28;20602;-81
2023/07/02 09:13:45;;;;;;;1.60;0.90;;;18.70;99.90;;;;;;5102410;28;21207;-78
2023/07/02 09:16:22;;;;;;;3.90;1.20;;;18.70;99.90;;;;;;5106947;27;20542;-80
2023/07/02 09:18:59;;;;;;;1.50;1.20;;;18.90;99.90;;;;;;5102787;28;20486;-81
2023/07/02 09:21:28;;;;;;;1.93;0.97;;;19.20;99.90;;;;;;5097523;27;20895;-80
2023/07/02 09:23:55;;;;;;;1.93;1.10;;;19.30;99.90;;;;;;5103799;28;20449;-79
2023/07/02 09:26:22;;;;;;;2.63;0.93;;;19.50;99.90;;;;;;5097784;28;20478;-78
2023/07/02 09:28:49;;;;;;;3.20;1.67;;;19.60;99.90;;;;;;5099018;28;20454;-80
2023/07/02 09:31:16;;;;;;;1.10;1.00;;;19.80;99.90;;;;;;5102161;28;20968;-79
2023/07/02 09:33:43;;;;;;;0.87;0.70;;;19.80;99.90;;;;;;5104593;27;20470;-80
2023/07/02 09:36:13;;;;;;;2.90;0.80;;;19.60;99.90;;;;;;5106773;28;20443;-79
2023/07/02 09:38:41;;;;;;;0.80;0.80;;;19.60;99.90;;;;;;5098787;28;20458;-78
2023/07/02 09:41:09;;;;;;;3.07;1.03;;;19.80;99.90;;;;;;5096138;27;20462;-79
2023/07/02 09:43:37;;;;;;;1.77;0.97;;;19.40;99.90;;;;;;5105925;28;20457;-78
2023/07/02 09:46:05;;;;;;;1.23;0.80;;;19.80;99.90;;;;;;5091015;27;21256;-80
2023/07/02 09:48:36;;;;;;;2.60;1.00;;;20.10;99.90;;;;;;5092289;27;20957;-78
2023/07/02 09:51:04;;;;;;;1.33;1.23;;;20.70;99.90;;;;;;5104965;28;20466;-81
2023/07/02 09:53:32;;;;;;;1.33;1.17;;;20.20;99.90;;;;;;5102813;27;20462;-79
2023/07/02 09:56:00;;;;;;;2.07;0.80;;;20.00;99.90;;;;;;5099496;28;20479;-80
2023/07/02 09:58:27;;;;;;;0.83;0.80;;;19.60;99.90;;;;;;5104657;28;21335;-80
2023/07/02 10:00:54;;;;;;;1.23;0.90;;;19.20;99.90;;;;;;5098111;27;20450;-78
2023/07/02 10:03:30;;;;;;;1.33;0.83;;;19.00;99.90;;;;;;5107219;28;20446;-77
2023/07/02 10:06:05;;;;;;;1.20;1.03;;;18.80;99.90;;;;;;5093470;28;20472;-78
2023/07/02 10:08:33;;;;;;;7.70;1.23;;;18.60;99.90;;;;;;5103943;28;20457;-79
2023/07/02 10:11:11;;;;;;;2.17;0.80;;;18.50;99.90;;;;;;5102308;27;20517;-78
2023/07/02 10:13:38;;;;;;;1.50;1.17;;;18.50;99.90;;;;;;5096327;27;20473;-80
2023/07/02 10:16:06;;;;;;;3.13;0.67;;;18.40;99.90;;;;;;5102922;28;20576;-79
2023/07/02 10:18:34;;;;;;;1.93;1.13;;;18.60;99.90;;;;;;5100951;28;20515;-80
2023/07/02 10:21:01;;;;;;;2.90;1.20;;;18.70;99.90;;;;;;5099115;27;20544;-78
2023/07/02 10:23:37;;;;;;;0.97;0.87;;;18.90;99.90;;;;;;5105766;28;20495;-80
2023/07/02 10:26:17;;;;;;;7.43;1.07;;;19.20;99.90;;;;;;5101622;27;21011;-80
2023/07/02 10:28:56;;;;;;;4.90;1.43;;;19.10;99.90;;;;;;5104770;28;20870;-79
2023/07/02 10:31:23;;;;;;;1.87;1.03;;;19.30;99.90;;;;;;5105962;28;20965;-80
2023/07/02 10:33:50;;;;;;;1.83;1.30;;;19.40;99.90;;;;;;5104264;27;20491;-81
2023/07/02 10:36:21;;;;;;;2.33;1.27;;;19.80;99.90;;;;;;5103464;28;20478;-78
2023/07/02 10:38:50;;;;;;;4.40;1.33;;;19.50;99.90;;;;;;5106406;28;20479;-78
2023/07/02 10:41:28;;;;;;;1.03;0.90;;;19.60;99.90;;;;;;5104797;28;20502;-79
2023/07/02 10:43:56;;;;;;;2.60;2.20;;;19.50;99.90;;;;;;5105582;28;20609;-80
2023/07/02 10:46:23;;;;;;;6.20;1.53;;;19.50;99.90;;;;;;5102512;28;20480;-79
2023/07/02 10:48:54;;;;;;;2.70;2.13;;;19.70;99.90;;;;;;5103091;28;20468;-77
2023/07/02 10:51:22;;;;;;;3.40;1.00;;;19.70;99.90;;;;;;5106440;28;20450;-79
2023/07/02 10:53:59;;;;;;;1.33;1.10;;;19.40;99.90;;;;;;5099470;28;20493;-77
2023/07/02 10:56:27;;;;;;;2.30;1.47;;;19.10;99.90;;;;;;5100444;28;20508;-80
2023/07/02 10:58:54;;;;;;;1.37;1.27;;;19.20;99.90;;;;;;5100717;28;20515;-79
2023/07/02 11:01:26;;;;;;;2.10;1.20;;;19.30;99.90;;;;;;5102409;28;20505;-79
2023/07/02 11:04:00;;;;;;;2.63;1.50;;;19.10;99.90;;;;;;5106610;28;20446;-78
2023/07/02 11:06:28;;;;;;;2.20;1.33;;;18.90;99.90;;;;;;5098029;28;20622;-78
2023/07/02 11:08:56;;;;;;;1.40;1.27;;;18.60;99.90;;;;;;5105411;28;20541;-77
2023/07/02 11:11:24;;;;;;;4.03;1.50;;;18.70;99.90;;;;;;5100304;28;20482;-77
2023/07/02 11:13:53;;;;;;;1.60;1.17;;;18.90;99.90;;;;;;5100636;28;20456;-77
2023/07/02 11:16:24;;;;;;;2.23;1.47;;;19.00;99.90;;;;;;5102258;28;20632;-79
2023/07/02 11:18:51;;;;;;;1.93;1.73;;;19.10;99.90;;;;;;5101404;28;20465;-80
2023/07/02 11:21:18;;;;;;;1.53;1.40;;;19.20;99.90;;;;;;5098238;28;20961;-80
2023/07/02 11:23:45;;;;;;;1.57;1.13;;;19.40;99.90;;;;;;5097679;28;21160;-78
2023/07/02 11:26:12;;;;;;;3.33;1.00;;;19.70;99.90;;;;;;5104976;28;21174;-78
2023/07/02 11:28:51;;;;;;;3.03;1.30;;;19.70;99.90;;;;;;5101086;28;20483;-79
2023/07/02 11:31:27;;;;;;;3.33;1.40;;;19.90;99.90;;;;;;5105627;28;20449;-80
2023/07/02 11:33:54;;;;;;;1.20;1.10;;;19.70;99.90;;;;;;5102728;28;20458;-78
2023/07/02 11:36:23;;;;;;;3.93;1.03;;;19.80;99.90;;;;;;5093370;28;20582;-80
2023/07/02 11:38:51;;;;;;;1.00;0.90;;;20.00;99.90;;;;;;5105252;28;20453;-80
2023/07/02 11:41:18;;;;;;;1.47;1.10;;;20.30;99.90;;;;;;5099199;28;20471;-81
2023/07/02 11:43:47;;;;;;;2.63;1.10;;;20.20;99.90;;;;;;5086797;28;20574;-80
2023/07/02 11:46:15;;;;;;;2.80;0.77;;;20.00;99.90;;;;;;5103549;28;20458;-78
2023/07/02 11:48:42;;;;;;;1.30;1.20;;;19.70;99.90;;;;;;5104724;27;20463;-79
2023/07/02 11:54:38;;;;;;;1.80;0.93;;;19.50;99.90;;;;;;4982619;28;20606;-80
2023/07/02 11:57:14;;;;;;;0.70;0.70;;;19.40;99.90;;;;;;4988784;28;20854;-80
2023/07/02 11:59:46;;;;;;;2.10;0.80;;;19.10;99.90;;;;;;4983996;27;20818;-81
2023/07/02 12:15:57;;;;;;;0.70;0.70;;;19.80;99.90;;;;;;4987554;28;20731;-80
2023/07/02 12:18:24;;;;;;;0.90;0.90;;;20.10;99.90;;;;;;5101220;28;20537;-80
2023/07/02 12:20:51;;;;;;;0.97;0.77;;;20.40;99.90;;;;;;5105206;28;21017;-78
2023/07/02 12:23:18;;;;;;;3.70;0.80;;;20.40;99.90;;;;;;5100002;28;20555;-78
2023/07/02 12:25:45;;;;;;;1.07;0.60;;;20.20;99.90;;;;;;5104355;28;20535;-77
2023/07/02 12:28:12;;;;;;;0.93;0.60;;;20.00;99.90;;;;;;5105970;27;21379;-80
2023/07/02 12:30:39;;;;;;;1.13;0.80;;;20.20;99.90;;;;;;5105053;28;20512;-79
2023/07/02 12:33:07;;;;;;;0.70;0.60;;;20.30;99.90;;;;;;5106675;27;20535;-78
2023/07/02 12:35:34;;;;;;;0.77;0.70;;;20.10;99.90;;;;;;5107379;27;20517;-79
2023/07/02 12:38:03;;;;;;;0.90;0.80;;;20.40;99.90;;;;;;5107544;27;21113;-80
2023/07/02 12:40:30;;;;;;;0.83;0.80;;;20.50;99.90;;;;;;5103403;27;20455;-80
2023/07/02 12:42:57;;;;;;;1.50;1.10;;;20.60;99.90;;;;;;5108123;27;20494;-80
2023/07/02 12:45:24;;;;;;;1.03;1.03;;;20.40;99.90;;;;;;5103989;28;20686;-78
